Time;durP1;ratioP1;P1;durP2;ratioP2;P2;SDS_P1;SDS_P2;PMS_P1;PMS_P2;Temp;Humidity;BMP_temperature;BMP_pressure;BME280_temperature;BME280_humidity;BME280_pressure;Samples;Min_cycle;Max_cycle;Signal;HPM_P1;HPM_P2
2022/12/02 00:06:59;;;;;;;28.73;18.50;;;;;7.50;99306.00;;;;16544337;28;20288;-49
2022/12/02 00:15:35;;;;;;;33.70;21.57;;;;;7.50;99285.00;;;;16533584;28;20766;-50
2022/12/02 00:23:40;;;;;;;33.50;21.20;;;;;7.50;99279.00;;;;16534063;28;20210;-48
2022/12/02 00:31:46;;;;;;;31.50;21.70;;;;;7.50;99269.00;;;;16540563;28;20277;-48
2022/12/02 00:39:51;;;;;;;28.40;19.90;;;;;7.50;99275.00;;;;16558961;28;20233;-48
2022/12/02 00:47:54;;;;;;;31.97;19.53;;;;;7.20;99269.00;;;;16561473;28;20226;-47
2022/12/02 00:55:57;;;;;;;34.20;23.13;;;;;7.20;99263.00;;;;16556332;28;20604;-49
2022/12/02 01:04:02;;;;;;;31.00;20.73;;;;;7.40;99257.00;;;;16561102;28;20205;-48
2022/12/02 01:12:05;;;;;;;33.93;21.17;;;;;7.30;99258.00;;;;16541869;28;20222;-48
2022/12/02 01:20:10;;;;;;;30.20;21.27;;;;;7.20;99261.00;;;;16547740;28;20244;-48
2022/12/02 01:28:13;;;;;;;31.13;21.47;;;;;7.60;99252.00;;;;16554419;28;20236;-49
2022/12/02 01:36:17;;;;;;;33.10;21.70;;;;;7.50;99241.00;;;;16576289;28;20234;-48
2022/12/02 01:44:19;;;;;;;28.77;19.33;;;;;7.20;99238.00;;;;16552724;28;20202;-49
2022/12/02 01:52:23;;;;;;;34.33;21.17;;;;;7.30;99235.00;;;;16557026;28;20224;-49
2022/12/02 02:00:27;;;;;;;32.53;21.60;;;;;7.80;99232.00;;;;16570502;28;20235;-49
2022/12/02 02:08:31;;;;;;;32.77;23.17;;;;;7.60;99235.00;;;;16560587;28;20610;-46
2022/12/02 02:16:33;;;;;;;32.53;20.73;;;;;7.40;99224.00;;;;16572449;28;20277;-49
2022/12/02 02:24:37;;;;;;;29.20;20.53;;;;;7.70;99221.00;;;;16554715;28;20214;-48
2022/12/02 02:32:40;;;;;;;31.53;20.37;;;;;7.60;99207.00;;;;16564267;28;20238;-48
2022/12/02 02:40:45;;;;;;;31.83;20.40;;;;;7.60;99203.00;;;;16543912;28;20224;-49
2022/12/02 02:48:52;;;;;;;33.10;21.67;;;;;7.50;99205.00;;;;16552723;28;20214;-46
2022/12/02 02:56:59;;;;;;;27.60;20.60;;;;;7.70;99190.00;;;;16549433;28;20325;-49
2022/12/02 03:05:02;;;;;;;34.27;22.50;;;;;7.30;99197.00;;;;16559515;28;20249;-48
2022/12/02 03:13:06;;;;;;;35.37;21.97;;;;;7.40;99195.00;;;;16544623;28;20208;-49
2022/12/02 03:21:09;;;;;;;30.77;20.73;;;;;7.40;99186.00;;;;16545956;28;20247;-49
2022/12/02 03:29:14;;;;;;;34.90;21.73;;;;;7.30;99189.00;;;;16538727;28;20571;-48
2022/12/02 03:37:17;;;;;;;32.03;19.33;;;;;7.40;99181.00;;;;16545603;28;20221;-48
2022/12/02 03:45:21;;;;;;;33.73;21.27;;;;;7.40;99183.00;;;;16557335;28;20229;-48
2022/12/02 03:53:24;;;;;;;30.43;20.37;;;;;7.50;99184.00;;;;16606062;28;20618;-50
2022/12/02 04:01:28;;;;;;;29.57;20.83;;;;;7.40;99174.00;;;;16554889;28;20280;-48
2022/12/02 04:09:33;;;;;;;31.10;21.27;;;;;7.20;99175.00;;;;16565154;28;20710;-48
2022/12/02 04:17:36;;;;;;;30.77;21.17;;;;;7.10;99157.00;;;;16564898;28;20244;-48
2022/12/02 04:25:44;;;;;;;31.20;21.73;;;;;7.10;99160.00;;;;16550164;28;20228;-49
2022/12/02 04:33:48;;;;;;;32.13;21.40;;;;;7.10;99145.00;;;;16556633;28;20304;-49
2022/12/02 04:41:52;;;;;;;37.07;21.60;;;;;7.30;99141.00;;;;16539402;28;20215;-48
2022/12/02 04:49:55;;;;;;;32.73;22.00;;;;;7.20;99150.00;;;;16540906;28;20234;-48
2022/12/02 04:58:00;;;;;;;36.63;22.70;;;;;7.20;99150.00;;;;16544592;28;20234;-49
2022/12/02 05:06:04;;;;;;;30.57;21.73;;;;;7.10;99148.00;;;;16557272;28;20222;-48
2022/12/02 05:14:07;;;;;;;32.30;22.37;;;;;7.10;99145.00;;;;16555905;28;20205;-46
2022/12/02 05:22:11;;;;;;;35.10;21.77;;;;;7.40;99142.00;;;;16549233;28;20223;-49
2022/12/02 05:30:14;;;;;;;35.20;22.30;;;;;7.30;99145.00;;;;16542823;28;20231;-49
2022/12/02 05:38:18;;;;;;;30.60;22.23;;;;;7.70;99136.00;;;;16548972;28;20219;-48
2022/12/02 05:46:22;;;;;;;29.37;21.43;;;;;7.30;99136.00;;;;16535879;28;20219;-49
2022/12/02 05:54:26;;;;;;;32.70;20.70;;;;;7.30;99139.00;;;;16538567;28;20276;-48
2022/12/02 06:02:36;;;;;;;34.10;20.93;;;;;7.70;99130.00;;;;16550329;28;20222;-48
2022/12/02 06:10:41;;;;;;;29.60;20.33;;;;;7.60;99136.00;;;;16546585;28;20223;-48
2022/12/02 06:18:43;;;;;;;33.50;22.37;;;;;7.90;99132.00;;;;16552636;28;20241;-48
2022/12/02 06:26:51;;;;;;;32.07;20.83;;;;;7.60;99128.00;;;;16575515;28;20237;-47
2022/12/02 06:34:53;;;;;;;39.00;25.30;;;;;7.50;99123.00;;;;16585220;28;20223;-50
2022/12/02 06:42:59;;;;;;;33.73;20.60;;;;;7.60;99108.00;;;;16561259;28;20255;-49
2022/12/02 06:51:12;;;;;;;35.27;22.27;;;;;7.60;99118.00;;;;16557461;28;20222;-49
2022/12/02 06:59:18;;;;;;;33.23;21.37;;;;;7.70;99117.00;;;;16575323;28;20254;-49
2022/12/02 07:07:22;;;;;;;30.97;21.90;;;;;7.40;99119.00;;;;16544878;28;20286;-48
2022/12/02 07:15:30;;;;;;;30.63;20.50;;;;;7.40;99115.00;;;;16552370;28;20243;-48
2022/12/02 07:23:33;;;;;;;33.60;21.83;;;;;7.70;99123.00;;;;16553092;28;20260;-49
2022/12/02 07:31:36;;;;;;;32.30;21.77;;;;;7.40;99125.00;;;;16552109;28;20237;-50
2022/12/02 07:39:39;;;;;;;37.00;23.00;;;;;7.40;99126.00;;;;16551211;28;20737;-49
2022/12/02 07:47:43;;;;;;;38.40;25.30;;;;;7.60;99119.00;;;;16543180;28;20215;-48
2022/12/02 07:55:45;;;;;;;36.97;24.40;;;;;7.40;99125.00;;;;16540850;28;20256;-50
2022/12/02 08:03:51;;;;;;;43.73;26.40;;;;;7.50;99113.00;;;;16550404;28;20906;-48
2022/12/02 08:11:54;;;;;;;42.47;23.93;;;;;7.40;99118.00;;;;16537264;28;20307;-49
2022/12/02 08:19:58;;;;;;;42.40;24.97;;;;;7.40;99125.00;;;;16554506;28;20369;-50
2022/12/02 08:28:00;;;;;;;44.23;26.10;;;;;8.00;99118.00;;;;16537647;28;20297;-48
2022/12/02 08:36:07;;;;;;;37.50;23.70;;;;;7.70;99109.00;;;;16562950;28;20285;-48
2022/12/02 08:44:10;;;;;;;36.63;23.50;;;;;7.60;99111.00;;;;16541481;28;20214;-49
2022/12/02 08:52:16;;;;;;;38.80;24.63;;;;;8.10;99104.00;;;;16542837;28;20230;-48
2022/12/02 09:00:19;;;;;;;38.17;24.60;;;;;7.50;99102.00;;;;16553597;28;20233;-48
2022/12/02 09:08:23;;;;;;;38.70;25.40;;;;;7.20;99109.00;;;;16558974;28;20230;-49
2022/12/02 09:16:25;;;;;;;42.17;25.47;;;;;7.40;99098.00;;;;16557611;28;20225;-49
2022/12/02 09:24:29;;;;;;;36.20;21.50;;;;;7.30;99109.00;;;;16558416;28;20214;-49
2022/12/02 09:32:32;;;;;;;44.50;24.07;;;;;7.70;99098.00;;;;16550200;28;20231;-49
2022/12/02 09:40:36;;;;;;;37.53;22.37;;;;;7.20;99106.00;;;;16550715;28;20875;-50
2022/12/02 09:48:39;;;;;;;36.20;21.47;;;;;7.40;99093.00;;;;16568774;28;20592;-48
2022/12/02 09:56:43;;;;;;;35.07;20.30;;;;;7.60;99083.00;;;;16555781;28;20686;-49
2022/12/02 10:04:45;;;;;;;28.00;18.47;;;;;7.20;99089.00;;;;16576639;28;20660;-48
2022/12/02 10:12:49;;;;;;;31.70;19.60;;;;;7.10;99081.00;;;;16573792;28;20303;-48
2022/12/02 10:20:52;;;;;;;25.33;18.83;;;;;7.40;99064.00;;;;16572173;28;20235;-48
2022/12/02 10:29:06;;;;;;;27.80;17.73;;;;;7.20;99066.00;;;;16568092;28;20210;-49
2022/12/02 10:37:27;;;;;;;27.37;18.77;;;;;7.40;99057.00;;;;16559198;28;20882;-48
2022/12/02 10:45:31;;;;;;;23.20;14.80;;;;;7.20;99055.00;;;;16574522;28;20342;-48
2022/12/02 10:53:36;;;;;;;22.07;14.43;;;;;7.30;99043.00;;;;16538608;28;20294;-49
2022/12/02 11:01:40;;;;;;;19.43;14.23;;;;;7.30;99038.00;;;;16560252;28;20285;-49
2022/12/02 11:09:46;;;;;;;18.73;14.30;;;;;7.60;99028.00;;;;16553701;28;20342;-49
2022/12/02 11:17:55;;;;;;;19.57;13.20;;;;;7.30;99021.00;;;;16581118;28;20241;-49
2022/12/02 11:26:11;;;;;;;22.30;15.27;;;;;8.00;99009.00;;;;16545677;28;20573;-49
2022/12/02 11:34:43;;;;;;;18.43;14.70;;;;;7.50;99007.00;;;;16524745;28;20281;-49
2022/12/02 11:42:46;;;;;;;19.37;13.20;;;;;7.60;99005.00;;;;16536208;28;20227;-50
2022/12/02 11:50:50;;;;;;;16.13;13.00;;;;;7.50;98997.00;;;;16535007;28;20215;-49
2022/12/02 11:58:53;;;;;;;15.70;10.90;;;;;7.40;98978.00;;;;16530268;28;20238;-49
2022/12/02 12:06:58;;;;;;;13.43;10.77;;;;;7.50;98993.00;;;;16559490;28;20226;-49
2022/12/02 12:15:02;;;;;;;18.20;13.00;;;;;7.50;98980.00;;;;16569953;28;20742;-49
2022/12/02 12:23:31;;;;;;;13.77;11.07;;;;;7.30;98978.00;;;;16565716;28;20210;-49
2022/12/02 12:31:34;;;;;;;13.30;9.63;;;;;6.90;98978.00;;;;16565674;28;20228;-49
2022/12/02 12:39:38;;;;;;;18.13;13.07;;;;;7.20;98968.00;;;;16568795;28;20229;-49
2022/12/02 12:47:40;;;;;;;14.87;10.80;;;;;7.00;98966.00;;;;16553058;28;20219;-49
2022/12/02 12:55:44;;;;;;;14.63;11.03;;;;;7.30;98957.00;;;;16546949;28;20577;-50
2022/12/02 13:03:46;;;;;;;12.63;10.37;;;;;7.20;98962.00;;;;16542887;28;20260;-50
2022/12/02 13:11:52;;;;;;;13.03;9.10;;;;;7.10;98955.00;;;;16555854;28;20235;-49
2022/12/02 13:19:55;;;;;;;11.47;9.03;;;;;7.00;98953.00;;;;16549923;28;20604;-47
2022/12/02 13:27:59;;;;;;;13.10;10.47;;;;;7.10;98956.00;;;;16549088;28;20287;-48
2022/12/02 13:36:02;;;;;;;9.53;8.50;;;;;7.00;98950.00;;;;16562982;28;20223;-49
2022/12/02 13:44:06;;;;;;;12.50;8.40;;;;;7.10;98952.00;;;;16559266;28;20463;-49
2022/12/02 13:52:08;;;;;;;9.80;8.83;;;;;7.70;98950.00;;;;16545437;28;20289;-50
2022/12/02 14:00:14;;;;;;;8.20;7.40;;;;;7.40;98943.00;;;;16562950;28;20235;-50
2022/12/02 14:08:17;;;;;;;9.60;8.20;;;;;7.10;98959.00;;;;16551942;28;20267;-50
2022/12/02 14:16:21;;;;;;;9.37;8.37;;;;;7.00;98950.00;;;;16554238;28;20233;-47
2022/12/02 14:24:23;;;;;;;9.03;8.10;;;;;6.90;98945.00;;;;16570772;28;20203;-49
2022/12/02 14:32:27;;;;;;;11.90;8.70;;;;;7.20;98946.00;;;;16560507;28;20237;-49
2022/12/02 14:40:30;;;;;;;8.77;7.97;;;;;7.20;98953.00;;;;16547644;28;20238;-49
2022/12/02 14:48:34;;;;;;;9.37;8.30;;;;;7.10;98952.00;;;;16545034;28;20233;-50
2022/12/02 14:56:37;;;;;;;9.07;8.13;;;;;7.00;98950.00;;;;16538295;28;20237;-48
2022/12/02 15:04:41;;;;;;;11.80;9.93;;;;;7.10;98951.00;;;;16553206;28;20237;-48
2022/12/02 15:12:43;;;;;;;7.53;6.73;;;;;6.80;98951.00;;;;16540226;28;20227;-48
2022/12/02 15:20:47;;;;;;;8.30;7.50;;;;;7.00;98957.00;;;;16548988;28;20256;-49
2022/12/02 15:28:50;;;;;;;9.40;8.43;;;;;7.10;98950.00;;;;16540786;28;20222;-49
2022/12/02 15:36:54;;;;;;;12.00;8.63;;;;;6.90;98956.00;;;;16551049;28;20230;-49
2022/12/02 15:44:56;;;;;;;8.80;7.77;;;;;7.20;98959.00;;;;16564783;28;20582;-50
2022/12/02 15:53:00;;;;;;;9.53;8.60;;;;;7.10;98964.00;;;;16576997;28;20205;-49
2022/12/02 16:01:02;;;;;;;8.67;7.80;;;;;7.60;98956.00;;;;16559250;28;20254;-49
2022/12/02 16:09:06;;;;;;;12.10;8.60;;;;;7.40;98959.00;;;;16540214;28;20236;-49
2022/12/02 16:17:09;;;;;;;9.17;7.43;;;;;7.00;98970.00;;;;16546602;28;20706;-50
2022/12/02 16:25:12;;;;;;;13.63;10.93;;;;;7.60;98973.00;;;;16563807;28;20737;-50
2022/12/02 16:33:15;;;;;;;11.23;8.77;;;;;7.50;98971.00;;;;16564804;28;20249;-49
2022/12/02 16:41:19;;;;;;;16.00;9.23;;;;;6.90;98977.00;;;;16556518;28;20229;-49
2022/12/02 16:49:21;;;;;;;11.53;9.50;;;;;7.30;98977.00;;;;16567101;28;20222;-51
2022/12/02 16:57:25;;;;;;;10.83;9.53;;;;;7.00;98977.00;;;;16548151;28;20231;-49
2022/12/02 17:05:28;;;;;;;12.03;10.27;;;;;6.90;98986.00;;;;16584883;28;20218;-49
2022/12/02 17:13:31;;;;;;;11.87;9.23;;;;;7.20;98990.00;;;;16561722;28;20205;-49
2022/12/02 17:21:36;;;;;;;11.73;10.53;;;;;7.10;98983.00;;;;16572800;28;20566;-48
2022/12/02 17:29:40;;;;;;;12.90;11.50;;;;;7.20;98987.00;;;;16571799;28;20222;-49
2022/12/02 17:37:43;;;;;;;9.73;8.70;;;;;7.20;98999.00;;;;16558096;28;20226;-49
2022/12/02 17:45:47;;;;;;;12.70;11.30;;;;;7.20;98998.00;;;;16562057;28;20775;-49
2022/12/02 17:53:49;;;;;;;11.60;9.63;;;;;7.00;98989.00;;;;16566023;28;20257;-49
2022/12/02 18:01:53;;;;;;;13.97;11.17;;;;;6.80;98995.00;;;;16569732;28;20335;-49
2022/12/02 18:09:55;;;;;;;11.20;10.00;;;;;6.70;99002.00;;;;16562352;28;20217;-48
2022/12/02 18:17:59;;;;;;;13.40;11.93;;;;;6.90;98999.00;;;;16547613;28;20240;-48
2022/12/02 18:26:02;;;;;;;12.20;10.67;;;;;7.10;98993.00;;;;16554819;28;20645;-50
2022/12/02 18:34:06;;;;;;;15.70;12.60;;;;;6.90;99001.00;;;;16560214;28;20222;-50
2022/12/02 18:42:08;;;;;;;12.97;10.50;;;;;7.00;98991.00;;;;16548797;28;20230;-47
2022/12/02 18:50:14;;;;;;;11.13;9.40;;;;;7.00;98977.00;;;;16540555;28;20226;-47
2022/12/02 18:58:19;;;;;;;12.30;9.30;;;;;7.10;98982.00;;;;16547717;28;20254;-51
2022/12/02 19:06:22;;;;;;;11.03;9.93;;;;;7.20;98972.00;;;;16552295;28;20288;-49
2022/12/02 19:14:25;;;;;;;11.73;10.17;;;;;6.90;98979.00;;;;16543256;28;20674;-48
2022/12/02 19:22:29;;;;;;;10.57;9.47;;;;;7.10;98967.00;;;;16536591;28;20266;-50
2022/12/02 19:30:31;;;;;;;11.73;8.97;;;;;6.90;98979.00;;;;16548695;28;20345;-48
2022/12/02 19:38:35;;;;;;;11.97;10.20;;;;;7.10;98980.00;;;;16545586;28;20312;-47
2022/12/02 19:46:37;;;;;;;15.47;11.97;;;;;7.10;98985.00;;;;16537263;28;20321;-48
2022/12/02 19:54:41;;;;;;;12.57;9.23;;;;;7.10;98987.00;;;;16543822;28;20238;-49
2022/12/02 20:02:44;;;;;;;11.00;8.60;;;;;7.00;98990.00;;;;16546211;28;20280;-49
2022/12/02 20:10:48;;;;;;;12.60;10.30;;;;;7.70;98979.00;;;;16549371;28;20254;-49
2022/12/02 20:18:50;;;;;;;10.70;9.57;;;;;7.70;98981.00;;;;16542478;28;20757;-49
2022/12/02 20:26:59;;;;;;;12.07;9.63;;;;;7.40;98986.00;;;;16537407;28;20250;-48
2022/12/02 20:35:01;;;;;;;10.23;9.20;;;;;7.30;98993.00;;;;16544130;28;20357;-49
2022/12/02 20:43:05;;;;;;;12.57;10.80;;;;;7.20;98988.00;;;;16542044;28;20242;-49
2022/12/02 20:51:08;;;;;;;15.43;10.50;;;;;7.00;98988.00;;;;16539624;28;20313;-49
2022/12/02 20:59:11;;;;;;;11.43;10.00;;;;;7.20;98995.00;;;;16546585;28;20229;-49
2022/12/02 21:07:14;;;;;;;14.40;11.63;;;;;7.20;98986.00;;;;16551497;28;20357;-49
2022/12/02 21:15:18;;;;;;;10.40;9.40;;;;;8.00;98989.00;;;;16549798;28;20329;-49
2022/12/02 21:23:20;;;;;;;15.97;12.37;;;;;7.70;98986.00;;;;16557455;28;20318;-49
2022/12/02 21:31:24;;;;;;;17.40;13.23;;;;;7.60;98997.00;;;;16546837;28;20313;-49
2022/12/02 21:39:27;;;;;;;12.40;9.83;;;;;8.20;98994.00;;;;16542544;28;20286;-49
2022/12/02 21:47:31;;;;;;;13.57;12.13;;;;;8.20;98998.00;;;;16570302;28;20583;-48
2022/12/02 21:55:33;;;;;;;23.50;16.60;;;;;8.60;98987.00;;;;16558983;28;20730;-49
2022/12/02 22:03:37;;;;;;;30.60;21.80;;;;;8.80;98987.00;;;;16558047;28;20335;-48
2022/12/02 22:11:40;;;;;;;24.33;17.80;;;;;8.60;98999.00;;;;16632548;22;20332;-47
2022/12/02 22:19:44;;;;;;;22.10;18.10;;;;;8.70;98993.00;;;;16647175;28;20334;-47
2022/12/02 22:27:47;;;;;;;28.63;20.63;;;;;8.80;98983.00;;;;16642297;28;20202;-47
2022/12/02 22:35:50;;;;;;;25.03;18.00;;;;;8.90;98988.00;;;;16632265;28;20573;-48
2022/12/02 22:43:53;;;;;;;22.13;17.47;;;;;9.20;98984.00;;;;16641996;28;20253;-47
2022/12/02 22:51:57;;;;;;;23.63;18.50;;;;;9.60;98979.00;;;;16647234;28;20284;-47
2022/12/02 23:00:00;;;;;;;26.20;18.23;;;;;9.20;98977.00;;;;16616762;28;20301;-47
2022/12/02 23:08:04;;;;;;;26.83;20.73;;;;;9.30;98975.00;;;;16662682;28;20579;-47
2022/12/02 23:16:07;;;;;;;23.97;19.27;;;;;8.00;98991.00;;;;16674140;28;20206;-47
2022/12/02 23:24:11;;;;;;;30.97;21.33;;;;;7.30;98992.00;;;;16639491;28;20237;-47
2022/12/02 23:32:13;;;;;;;28.03;19.97;;;;;6.80;99002.00;;;;16627576;28;20268;-47
2022/12/02 23:40:17;;;;;;;29.67;20.90;;;;;6.60;99004.00;;;;16646596;28;20237;-47
2022/12/02 23:48:20;;;;;;;28.30;21.40;;;;;6.40;99003.00;;;;16603918;28;20225;-47
2022/12/02 23:56:23;;;;;;;28.70;20.03;;;;;5.80;99016.00;;;;16604965;28;20201;-47
